Time;durP1;ratioP1;P1;durP2;ratioP2;P2;SDS_P1;SDS_P2;PMS_P1;PMS_P2;Temp;Humidity;BMP_temperature;BMP_pressure;BME280_temperature;BME280_humidity;BME280_pressure;Samples;Min_cycle;Max_cycle;Signal;HPM_P1;HPM_P2
2024/01/24 00:01:32;;;;;;;;;;;;;;;-144.99;100.00;67352.69;5052404;28;19920;-83
2024/01/24 00:03:57;;;;;;;;;;;;;;;-144.99;100.00;67352.69;5052176;28;19967;-80
2024/01/24 00:06:22;;;;;;;;;;;;;;;-144.99;100.00;67352.69;5054218;28;19944;-82
2024/01/24 00:08:48;;;;;;;;;;;;;;;-144.99;100.00;67352.69;5054335;28;19996;-81
2024/01/24 00:11:13;;;;;;;;;;;;;;;-144.99;100.00;67352.69;5052394;28;19919;-81
2024/01/24 00:13:39;;;;;;;;;;;;;;;-144.99;100.00;67352.69;5051919;28;19916;-80
2024/01/24 00:16:04;;;;;;;;;;;;;;;-144.99;100.00;67352.69;5052396;28;19919;-81
2024/01/24 00:18:29;;;;;;;;;;;;;;;-144.99;100.00;67352.69;5053754;28;20272;-82
2024/01/24 00:20:54;;;;;;;;;;;;;;;-144.99;100.00;67352.69;5053445;28;19958;-82
2024/01/24 00:23:19;;;;;;;;;;;;;;;-144.99;100.00;67352.69;5052611;28;19928;-81
2024/01/24 00:25:45;;;;;;;;;;;;;;;-144.99;100.00;67352.69;5053496;28;19912;-82
2024/01/24 00:28:11;;;;;;;;;;;;;;;-144.99;100.00;67352.69;5052828;28;20387;-80
2024/01/24 00:30:37;;;;;;;;;;;;;;;-144.99;100.00;67352.69;5054047;28;19913;-82
2024/01/24 00:33:03;;;;;;;;;;;;;;;-144.99;100.00;67352.69;5052619;28;20349;-81
2024/01/24 00:35:28;;;;;;;;;;;;;;;-144.99;100.00;67352.69;5053483;28;19912;-82
2024/01/24 00:37:54;;;;;;;;;;;;;;;-144.99;100.00;67352.69;5046785;28;19959;-83
2024/01/24 00:40:19;;;;;;;;;;;;;;;-144.99;100.00;67352.69;5055412;28;19958;-81
2024/01/24 00:42:44;;;;;;;;;;;;;;;-144.99;100.00;67352.69;5058119;28;19913;-82
2024/01/24 00:45:13;;;;;;;;;;;;;;;-144.99;100.00;67352.69;5056461;28;19917;-82
2024/01/24 00:47:39;;;;;;;;;;;;;;;-144.99;100.00;67352.69;5057858;28;20327;-82
2024/01/24 00:50:05;;;;;;;;;;;;;;;-144.99;100.00;67352.69;5058421;28;20100;-84
2024/01/24 00:52:30;;;;;;;;;;;;;;;-144.99;100.00;67352.69;5056506;28;20003;-82
2024/01/24 00:54:55;;;;;;;;;;;;;;;-144.99;100.00;67352.69;5055601;28;19913;-81
2024/01/24 00:57:21;;;;;;;;;;;;;;;-144.99;100.00;67352.69;5057896;28;19913;-82
2024/01/24 00:59:46;;;;;;;;;;;;;;;-144.99;100.00;67352.69;5056706;28;19951;-83
2024/01/24 01:02:11;;;;;;;;;;;;;;;-144.99;100.00;67352.69;5056867;28;20007;-80
2024/01/24 01:04:36;;;;;;;;;;;;;;;-144.99;100.00;67352.69;5057004;28;19916;-81
2024/01/24 01:07:01;;;;;;;;;;;;;;;-144.99;100.00;67352.69;5056682;28;19919;-80
2024/01/24 01:09:27;;;;;;;;;;;;;;;-144.99;100.00;67352.69;5057706;28;19913;-82
2024/01/24 01:11:52;;;;;;;;;;;;;;;-144.99;100.00;67352.69;5057446;28;19939;-81
2024/01/24 01:14:17;;;;;;;;;;;;;;;-144.99;100.00;67352.69;5055867;28;20280;-81
2024/01/24 01:16:42;;;;;;;;;;;;;;;-144.99;100.00;67352.69;5057822;28;19912;-81
2024/01/24 01:19:07;;;;;;;;;;;;;;;-144.99;100.00;67352.69;5056751;28;19960;-82
2024/01/24 01:21:33;;;;;;;;;;;;;;;-144.99;100.00;67352.69;5057104;28;20403;-82
2024/01/24 01:23:58;;;;;;;;;;;;;;;-144.99;100.00;67352.69;5056597;28;19921;-81
2024/01/24 01:26:23;;;;;;;;;;;;;;;-144.99;100.00;67352.69;5056913;28;20008;-82
2024/01/24 01:28:48;;;;;;;;;;;;;;;-144.99;100.00;67352.69;5057205;28;19917;-81
2024/01/24 01:31:14;;;;;;;;;;;;;;;-144.99;100.00;67352.69;5055649;28;19912;-81
2024/01/24 01:33:39;;;;;;;;;;;;;;;-144.99;100.00;67352.69;5055136;28;20376;-80
2024/01/24 01:36:04;;;;;;;;;;;;;;;-144.99;100.00;67352.69;5057215;28;19913;-81
2024/01/24 01:38:29;;;;;;;;;;;;;;;-144.99;100.00;67352.69;5055018;28;20347;-80
2024/01/24 01:40:55;;;;;;;;;;;;;;;-144.99;100.00;67352.69;5055073;28;19912;-80
2024/01/24 01:43:20;;;;;;;;;;;;;;;-144.99;100.00;67352.69;5055679;28;19923;-81
2024/01/24 01:45:45;;;;;;;;;;;;;;;-144.99;100.00;67352.69;5055615;28;19913;-80
2024/01/24 01:48:11;;;;;;;;;;;;;;;-144.99;100.00;67352.69;5057418;28;19916;-81
2024/01/24 01:50:36;;;;;;;;;;;;;;;-144.99;100.00;67352.69;5055952;28;19913;-81
2024/01/24 01:53:03;;;;;;;;;;;;;;;-144.99;100.00;67352.69;5056924;28;19912;-81
2024/01/24 01:55:29;;;;;;;;;;;;;;;-144.99;100.00;67352.69;5054528;28;19913;-81
2024/01/24 01:57:55;;;;;;;;;;;;;;;-144.99;100.00;67352.69;5048892;28;19917;-81
2024/01/24 02:00:20;;;;;;;;;;;;;;;-144.99;100.00;67352.69;5055008;28;19919;-81
2024/01/24 02:02:49;;;;;;;;;;;;;;;-144.99;100.00;67352.69;5048369;28;19921;-81
2024/01/24 02:05:15;;;;;;;;;;;;;;;-144.99;100.00;67352.69;5054214;28;19923;-81
2024/01/24 02:07:44;;;;;;;;;;;;;;;-144.99;100.00;67352.69;5049827;28;19912;-81
2024/01/24 02:10:10;;;;;;;;;;;;;;;-144.99;100.00;67352.69;5054823;28;19917;-81
2024/01/24 02:12:36;;;;;;;;;;;;;;;-144.99;100.00;67352.69;5056376;28;19912;-82
2024/01/24 02:15:01;;;;;;;;;;;;;;;-144.99;100.00;67352.69;5054413;28;19917;-82
2024/01/24 02:17:27;;;;;;;;;;;;;;;-144.99;100.00;67352.69;5054710;28;19917;-82
2024/01/24 02:19:52;;;;;;;;;;;;;;;-144.99;100.00;67352.69;5055991;28;19913;-81
2024/01/24 02:22:17;;;;;;;;;;;;;;;-144.99;100.00;67352.69;5056209;28;19913;-81
2024/01/24 02:24:43;;;;;;;;;;;;;;;-144.99;100.00;67352.69;5055586;28;19927;-81
2024/01/24 02:27:08;;;;;;;;;;;;;;;-144.99;100.00;67352.69;5055986;28;19917;-82
2024/01/24 02:29:33;;;;;;;;;;;;;;;-144.99;100.00;67352.69;5055494;28;19917;-82
2024/01/24 02:31:59;;;;;;;;;;;;;;;-144.99;100.00;67352.69;5054933;28;19913;-82
2024/01/24 02:34:24;;;;;;;;;;;;;;;-144.99;100.00;67352.69;5055562;28;19913;-82
2024/01/24 02:36:49;;;;;;;;;;;;;;;-144.99;100.00;67352.69;5053177;28;19916;-81
2024/01/24 02:39:14;;;;;;;;;;;;;;;-144.99;100.00;67352.69;5052346;28;19955;-82
2024/01/24 02:41:40;;;;;;;;;;;;;;;-144.99;100.00;67352.69;5053438;28;20335;-81
2024/01/24 02:44:05;;;;;;;;;;;;;;;-144.99;100.00;67352.69;5053060;28;19970;-82
2024/01/24 02:46:30;;;;;;;;;;;;;;;-144.99;100.00;67352.69;5051474;28;20507;-82
2024/01/24 02:48:55;;;;;;;;;;;;;;;-144.99;100.00;67352.69;5052517;28;19923;-80
2024/01/24 02:51:26;;;;;;;;;;;;;;;-144.99;100.00;67352.69;5054300;28;19923;-82
2024/01/24 02:53:52;;;;;;;;;;;;;;;-144.99;100.00;67352.69;5052436;28;19975;-81
2024/01/24 02:56:17;;;;;;;;;;;;;;;-144.99;100.00;67352.69;5053509;28;20054;-82
2024/01/24 02:58:42;;;;;;;;;;;;;;;-144.99;100.00;67352.69;5053989;28;20318;-81
2024/01/24 03:01:08;;;;;;;;;;;;;;;-144.99;100.00;67352.69;5054116;28;19944;-82
2024/01/24 03:03:33;;;;;;;;;;;;;;;-144.99;100.00;67352.69;5054644;28;19924;-82
2024/01/24 03:05:58;;;;;;;;;;;;;;;-144.99;100.00;67352.69;5054020;28;20295;-82
2024/01/24 03:08:23;;;;;;;;;;;;;;;-144.99;100.00;67352.69;5055507;28;19921;-82
2024/01/24 03:10:48;;;;;;;;;;;;;;;-144.99;100.00;67352.69;5053802;28;19917;-81
2024/01/24 03:13:14;;;;;;;;;;;;;;;-144.99;100.00;67352.69;5051040;28;19920;-82
2024/01/24 03:15:39;;;;;;;;;;;;;;;-144.99;100.00;67352.69;5053100;28;20350;-82
2024/01/24 03:18:04;;;;;;;;;;;;;;;-144.99;100.00;67352.69;5052393;28;19913;-82
2024/01/24 03:20:30;;;;;;;;;;;;;;;-144.99;100.00;67352.69;5053458;28;20371;-82
2024/01/24 03:22:55;;;;;;;;;;;;;;;-144.99;100.00;67352.69;5051768;28;20006;-82
2024/01/24 03:25:21;;;;;;;;;;;;;;;-144.99;100.00;67352.69;5052938;28;19921;-82
2024/01/24 03:27:46;;;;;;;;;;;;;;;-144.99;100.00;67352.69;5053256;28;19913;-81
2024/01/24 03:30:11;;;;;;;;;;;;;;;-144.99;100.00;67352.69;5053424;28;20422;-80
2024/01/24 03:32:36;;;;;;;;;;;;;;;-144.99;100.00;67352.69;5051770;28;20345;-82
2024/01/24 03:35:02;;;;;;;;;;;;;;;-144.99;100.00;67352.69;5051024;28;19913;-82
2024/01/24 03:37:27;;;;;;;;;;;;;;;-144.99;100.00;67352.69;5052998;28;19913;-81
2024/01/24 03:39:52;;;;;;;;;;;;;;;-144.99;100.00;67352.69;5050862;28;20387;-82
2024/01/24 03:42:18;;;;;;;;;;;;;;;-144.99;100.00;67352.69;5051892;28;19913;-81
2024/01/24 03:44:43;;;;;;;;;;;;;;;-144.99;100.00;67352.69;5047787;28;19917;-80
2024/01/24 03:47:08;;;;;;;;;;;;;;;-144.99;100.00;67352.69;5050324;28;19969;-80
2024/01/24 03:49:33;;;;;;;;;;;;;;;-144.99;100.00;67352.69;5050362;28;19913;-80
2024/01/24 03:51:59;;;;;;;;;;;;;;;-144.99;100.00;67352.69;5050357;28;19913;-81
2024/01/24 03:54:24;;;;;;;;;;;;;;;-144.99;100.00;67352.69;5048809;28;20007;-80
2024/01/24 03:56:49;;;;;;;;;;;;;;;-144.99;100.00;67352.69;5051780;28;19916;-81
2024/01/24 03:59:14;;;;;;;;;;;;;;;-144.99;100.00;67352.69;5051780;28;20375;-80
2024/01/24 04:01:40;;;;;;;;;;;;;;;-144.99;100.00;67352.69;5050753;28;19975;-79
2024/01/24 04:04:05;;;;;;;;;;;;;;;-144.99;100.00;67352.69;5051359;28;19924;-81
2024/01/24 04:06:30;;;;;;;;;;;;;;;-144.99;100.00;67352.69;5050613;28;19956;-81
2024/01/24 04:08:55;;;;;;;;;;;;;;;-144.99;100.00;67352.69;5051029;28;19917;-81
2024/01/24 04:11:20;;;;;;;;;;;;;;;-144.99;100.00;67352.69;5052557;28;19917;-80
2024/01/24 04:13:50;;;;;;;;;;;;;;;-144.99;100.00;67352.69;5052364;28;19920;-80
2024/01/24 04:16:15;;;;;;;;;;;;;;;-144.99;100.00;67352.69;5055931;28;19935;-79
2024/01/24 04:18:40;;;;;;;;;;;;;;;-144.99;100.00;67352.69;5054999;28;20391;-80
2024/01/24 04:21:05;;;;;;;;;;;;;;;-144.99;100.00;67352.69;5055931;28;19913;-80
2024/01/24 04:23:31;;;;;;;;;;;;;;;-144.99;100.00;67352.69;5055623;28;19932;-80
2024/01/24 04:25:56;;;;;;;;;;;;;;;-144.99;100.00;67352.69;5055915;28;19939;-81
2024/01/24 04:28:21;;;;;;;;;;;;;;;-144.99;100.00;67352.69;5055965;28;19920;-80
2024/01/24 04:30:46;;;;;;;;;;;;;;;-144.99;100.00;67352.69;5054355;28;19956;-80
2024/01/24 04:33:14;;;;;;;;;;;;;;;-144.99;100.00;67352.69;5054219;28;20345;-80
2024/01/24 04:35:39;;;;;;;;;;;;;;;-144.99;100.00;67352.69;5056035;28;19913;-81
2024/01/24 04:38:04;;;;;;;;;;;;;;;-144.99;100.00;67352.69;5056600;28;20344;-81
2024/01/24 04:40:29;;;;;;;;;;;;;;;-144.99;100.00;67352.69;5056178;28;19920;-80
2024/01/24 04:42:54;;;;;;;;;;;;;;;-144.99;100.00;67352.69;5054349;28;20003;-81
2024/01/24 04:45:19;;;;;;;;;;;;;;;-144.99;100.00;67352.69;5054753;28;19917;-80
2024/01/24 04:47:45;;;;;;;;;;;;;;;-144.99;100.00;67352.69;5056030;28;19959;-80
2024/01/24 04:50:11;;;;;;;;;;;;;;;-144.99;100.00;67352.69;5055614;28;20315;-81
2024/01/24 04:52:36;;;;;;;;;;;;;;;-144.99;100.00;67352.69;5055355;28;19931;-80
2024/01/24 04:55:01;;;;;;;;;;;;;;;-144.99;100.00;67352.69;5055072;28;19966;-81
2024/01/24 04:57:26;;;;;;;;;;;;;;;-144.99;100.00;67352.69;5054358;28;19913;-82
2024/01/24 04:59:52;;;;;;;;;;;;;;;-144.99;100.00;67352.69;5055188;28;19913;-81
2024/01/24 05:02:17;;;;;;;;;;;;;;;-144.99;100.00;67352.69;5054190;28;19920;-80
2024/01/24 05:04:43;;;;;;;;;;;;;;;-144.99;100.00;67352.69;5051061;28;20303;-79
2024/01/24 05:07:08;;;;;;;;;;;;;;;-144.99;100.00;67352.69;5054006;28;19917;-81
2024/01/24 05:09:33;;;;;;;;;;;;;;;-144.99;100.00;67352.69;5053036;28;19913;-82
2024/01/24 05:11:58;;;;;;;;;;;;;;;-144.99;100.00;67352.69;5054032;28;19916;-80
2024/01/24 05:14:23;;;;;;;;;;;;;;;-144.99;100.00;67352.69;5052086;28;20204;-80
2024/01/24 05:16:49;;;;;;;;;;;;;;;-144.99;100.00;67352.69;5054017;28;19966;-79
2024/01/24 05:19:14;;;;;;;;;;;;;;;-144.99;100.00;67352.69;5052699;28;19960;-80
2024/01/24 05:21:42;;;;;;;;;;;;;;;-144.99;100.00;67352.69;5053792;28;20402;-81
2024/01/24 05:24:09;;;;;;;;;;;;;;;-144.99;100.00;67352.69;5052991;28;19955;-81
2024/01/24 05:26:35;;;;;;;;;;;;;;;-144.99;100.00;67352.69;5053403;28;19913;-81
2024/01/24 05:29:00;;;;;;;;;;;;;;;-144.99;100.00;67352.69;5052505;28;20371;-80
2024/01/24 05:31:25;;;;;;;;;;;;;;;-144.99;100.00;67352.69;5052650;28;19943;-81
2024/01/24 05:33:51;;;;;;;;;;;;;;;-144.99;100.00;67352.69;5051942;28;19921;-81
2024/01/24 05:36:16;;;;;;;;;;;;;;;-144.99;100.00;67352.69;5052458;28;20023;-81
2024/01/24 05:38:41;;;;;;;;;;;;;;;-144.99;100.00;67352.69;5052811;28;19920;-80
2024/01/24 05:41:08;;;;;;;;;;;;;;;-144.99;100.00;67352.69;5052254;28;20299;-81
2024/01/24 05:43:33;;;;;;;;;;;;;;;-144.99;100.00;67352.69;5052564;28;20019;-81
2024/01/24 05:45:58;;;;;;;;;;;;;;;-144.99;100.00;67352.69;5053451;28;20001;-81
2024/01/24 05:48:23;;;;;;;;;;;;;;;-144.99;100.00;67352.69;5053765;28;20383;-81
2024/01/24 05:50:48;;;;;;;;;;;;;;;-144.99;100.00;67352.69;5052022;28;19919;-81
2024/01/24 05:53:14;;;;;;;;;;;;;;;-144.99;100.00;67352.69;5052891;28;20410;-80
2024/01/24 05:55:39;;;;;;;;;;;;;;;-144.99;100.00;67352.69;5052196;28;20008;-80
2024/01/24 05:58:05;;;;;;;;;;;;;;;-144.99;100.00;67352.69;5052441;28;19913;-81
2024/01/24 06:00:31;;;;;;;;;;;;;;;-144.99;100.00;67352.69;5053332;28;19913;-80
2024/01/24 06:02:56;;;;;;;;;;;;;;;-144.99;100.00;67352.69;5051835;28;20276;-80
2024/01/24 06:05:21;;;;;;;;;;;;;;;-144.99;100.00;67352.69;5050880;28;20395;-81
2024/01/24 06:07:49;;;;;;;;;;;;;;;-144.99;100.00;67352.69;5051945;28;19916;-80
2024/01/24 06:10:14;;;;;;;;;;;;;;;-144.99;100.00;67352.69;5053258;28;20295;-80
2024/01/24 06:12:40;;;;;;;;;;;;;;;-144.99;100.00;67352.69;5051768;28;19912;-80
2024/01/24 06:15:05;;;;;;;;;;;;;;;-144.99;100.00;67352.69;5052356;28;20463;-79
2024/01/24 06:17:31;;;;;;;;;;;;;;;-144.99;100.00;67352.69;5053123;28;19920;-80
2024/01/24 06:19:56;;;;;;;;;;;;;;;-144.99;100.00;67352.69;5051468;28;20387;-80
2024/01/24 06:22:21;;;;;;;;;;;;;;;-144.99;100.00;67352.69;5051696;28;19913;-81
2024/01/24 06:24:47;;;;;;;;;;;;;;;-144.99;100.00;67352.69;5051678;28;19920;-81
2024/01/24 06:27:12;;;;;;;;;;;;;;;-144.99;100.00;67352.69;5053009;28;19913;-80
2024/01/24 06:29:37;;;;;;;;;;;;;;;-144.99;100.00;67352.69;5052547;28;19923;-80
2024/01/24 06:32:02;;;;;;;;;;;;;;;-144.99;100.00;67352.69;5052672;28;20190;-80
2024/01/24 06:34:28;;;;;;;;;;;;;;;-144.99;100.00;67352.69;5050394;28;19913;-80
2024/01/24 06:36:53;;;;;;;;;;;;;;;-144.99;100.00;67352.69;5052573;28;19913;-80
2024/01/24 06:39:18;;;;;;;;;;;;;;;-144.99;100.00;67352.69;5051168;28;19982;-80
2024/01/24 06:41:46;;;;;;;;;;;;;;;-144.99;100.00;67352.69;5051250;28;19995;-79
2024/01/24 06:44:11;;;;;;;;;;;;;;;-144.99;100.00;67352.69;5050610;28;19921;-80
2024/01/24 06:46:41;;;;;;;;;;;;;;;-144.99;100.00;67352.69;5052326;28;19974;-80
2024/01/24 06:49:07;;;;;;;;;;;;;;;-144.99;100.00;67352.69;5052156;28;19917;-80
2024/01/24 06:51:33;;;;;;;;;;;;;;;-144.99;100.00;67352.69;5051113;28;19987;-80
2024/01/24 06:53:58;;;;;;;;;;;;;;;-144.99;100.00;67352.69;5051831;28;19952;-80
2024/01/24 06:56:24;;;;;;;;;;;;;;;-144.99;100.00;67352.69;5050909;28;20280;-80
2024/01/24 06:58:49;;;;;;;;;;;;;;;-144.99;100.00;67352.69;5052299;28;19967;-80
2024/01/24 07:01:14;;;;;;;;;;;;;;;-144.99;100.00;67352.69;5050698;28;19913;-79
2024/01/24 07:03:40;;;;;;;;;;;;;;;-144.99;100.00;67352.69;5051255;28;19940;-80
2024/01/24 07:06:07;;;;;;;;;;;;;;;-144.99;100.00;67352.69;5051818;28;20189;-82
2024/01/24 07:08:33;;;;;;;;;;;;;;;-144.99;100.00;67352.69;5050916;28;19963;-79
2024/01/24 07:10:58;;;;;;;;;;;;;;;-144.99;100.00;67352.69;5050805;28;20268;-79
2024/01/24 07:13:24;;;;;;;;;;;;;;;-144.99;100.00;67352.69;5050523;28;19919;-79
2024/01/24 07:15:49;;;;;;;;;;;;;;;-144.99;100.00;67352.69;5051156;28;20347;-79
2024/01/24 07:18:14;;;;;;;;;;;;;;;-144.99;100.00;67352.69;5052473;28;19917;-80
2024/01/24 07:20:39;;;;;;;;;;;;;;;-144.99;100.00;67352.69;5050881;28;19952;-79
2024/01/24 07:23:04;;;;;;;;;;;;;;;-144.99;100.00;67352.69;5045835;28;19916;-79
2024/01/24 07:25:30;;;;;;;;;;;;;;;-144.99;100.00;67352.69;5046694;28;19978;-79
2024/01/24 07:27:55;;;;;;;;;;;;;;;-144.99;100.00;67352.69;5051178;28;19967;-79
2024/01/24 07:30:22;;;;;;;;;;;;;;;-144.99;100.00;67352.69;5050232;28;20311;-79
2024/01/24 07:32:47;;;;;;;;;;;;;;;-144.99;100.00;67352.69;5051299;28;20402;-79
2024/01/24 07:35:12;;;;;;;;;;;;;;;-144.99;100.00;67352.69;5050881;28;19995;-79
2024/01/24 07:37:37;;;;;;;;;;;;;;;-144.99;100.00;67352.69;5051419;28;20378;-79
2024/01/24 07:40:03;;;;;;;;;;;;;;;-144.99;100.00;67352.69;5050219;28;19920;-79
2024/01/24 07:42:29;;;;;;;;;;;;;;;-144.99;100.00;67352.69;5051500;28;20375;-79
2024/01/24 07:44:54;;;;;;;;;;;;;;;-144.99;100.00;67352.69;5050747;28;19970;-79
2024/01/24 07:47:20;;;;;;;;;;;;;;;-144.99;100.00;67352.69;5051592;28;19913;-79
2024/01/24 07:49:45;;;;;;;;;;;;;;;-144.99;100.00;67352.69;5053575;28;19916;-79
2024/01/24 07:52:10;;;;;;;;;;;;;;;-144.99;100.00;67352.69;5054941;28;19916;-79
2024/01/24 07:54:36;;;;;;;;;;;;;;;-144.99;100.00;67352.69;5050773;28;19917;-79
2024/01/24 07:57:03;;;;;;;;;;;;;;;-144.99;100.00;67352.69;5053898;28;19928;-78
2024/01/24 07:59:29;;;;;;;;;;;;;;;-144.99;100.00;67352.69;5055077;28;19913;-78
2024/01/24 08:01:54;;;;;;;;;;;;;;;-144.99;100.00;67352.69;5054784;28;19916;-79
2024/01/24 08:04:19;;;;;;;;;;;;;;;-144.99;100.00;67352.69;5053327;28;20084;-79
2024/01/24 08:06:47;;;;;;;;;;;;;;;-144.99;100.00;67352.69;5054079;28;20190;-79
2024/01/24 08:09:12;;;;;;;;;;;;;;;-144.99;100.00;67352.69;5055154;28;19943;-79
2024/01/24 08:11:38;;;;;;;;;;;;;;;-144.99;100.00;67352.69;5055359;28;20375;-83
2024/01/24 08:14:03;;;;;;;;;;;;;;;-144.99;100.00;67352.69;5054605;28;19919;-79
2024/01/24 08:16:29;;;;;;;;;;;;;;;-144.99;100.00;67352.69;5055169;28;19952;-79
2024/01/24 08:18:55;;;;;;;;;;;;;;;-144.99;100.00;67352.69;5055160;28;19960;-79
2024/01/24 08:21:20;;;;;;;;;;;;;;;-144.99;100.00;67352.69;5053965;28;19967;-79
2024/01/24 08:23:45;;;;;;;;;;;;;;;-144.99;100.00;67352.69;5052669;28;19916;-78
2024/01/24 08:26:10;;;;;;;;;;;;;;;-144.99;100.00;67352.69;5054041;28;19917;-79
2024/01/24 08:28:36;;;;;;;;;;;;;;;-144.99;100.00;67352.69;5055426;28;19916;-79
2024/01/24 08:31:01;;;;;;;;;;;;;;;-144.99;100.00;67352.69;5053184;28;19920;-80
2024/01/24 08:33:26;;;;;;;;;;;;;;;-144.99;100.00;67352.69;5053376;28;20414;-80
2024/01/24 08:35:51;;;;;;;;;;;;;;;-144.99;100.00;67352.69;5055117;28;20447;-79
2024/01/24 08:38:17;;;;;;;;;;;;;;;-144.99;100.00;67352.69;5055089;28;20435;-79
2024/01/24 08:40:42;;;;;;;;;;;;;;;-144.99;100.00;67352.69;5053706;28;19912;-79
2024/01/24 08:43:08;;;;;;;;;;;;;;;-144.99;100.00;67352.69;5054830;28;20011;-80
2024/01/24 08:45:33;;;;;;;;;;;;;;;-144.99;100.00;67352.69;5052440;28;19970;-79
2024/01/24 08:47:58;;;;;;;;;;;;;;;-144.99;100.00;67352.69;5054588;28;20015;-79
2024/01/24 08:50:24;;;;;;;;;;;;;;;-144.99;100.00;67352.69;5053152;28;20327;-80
2024/01/24 08:52:50;;;;;;;;;;;;;;;-144.99;100.00;67352.69;5054376;28;19912;-80
2024/01/24 08:55:16;;;;;;;;;;;;;;;-144.99;100.00;67352.69;5054186;28;19912;-78
2024/01/24 08:57:42;;;;;;;;;;;;;;;-144.99;100.00;67352.69;5054944;28;20365;-79
2024/01/24 09:00:08;;;;;;;;;;;;;;;-144.99;100.00;67352.69;5054033;28;19959;-79
2024/01/24 09:02:33;;;;;;;;;;;;;;;-144.99;100.00;67352.69;5053460;28;19917;-79
2024/01/24 09:04:58;;;;;;;;;;;;;;;-144.99;100.00;67352.69;5054336;28;19923;-79
2024/01/24 09:07:24;;;;;;;;;;;;;;;-144.99;100.00;67352.69;5055338;28;19912;-80
2024/01/24 09:09:50;;;;;;;;;;;;;;;-144.99;100.00;67352.69;5053750;28;19999;-80
2024/01/24 09:12:15;;;;;;;;;;;;;;;-144.99;100.00;67352.69;5053635;28;19912;-81
2024/01/24 09:14:40;;;;;;;;;;;;;;;-144.99;100.00;67352.69;5053732;28;19920;-79
2024/01/24 09:17:07;;;;;;;;;;;;;;;-144.99;100.00;67352.69;5055294;28;19913;-79
2024/01/24 09:19:32;;;;;;;;;;;;;;;-144.99;100.00;67352.69;5055122;28;20283;-80
2024/01/24 09:21:58;;;;;;;;;;;;;;;-144.99;100.00;67352.69;5054093;28;19920;-80
2024/01/24 09:24:23;;;;;;;;;;;;;;;-144.99;100.00;67352.69;5052953;28;19917;-80
2024/01/24 09:26:48;;;;;;;;;;;;;;;-144.99;100.00;67352.69;5054653;28;19920;-80
2024/01/24 09:29:14;;;;;;;;;;;;;;;-144.99;100.00;67352.69;5054695;28;19917;-80
2024/01/24 09:31:43;;;;;;;;;;;;;;;-144.99;100.00;67352.69;5053489;28;19913;-80
2024/01/24 09:34:09;;;;;;;;;;;;;;;-144.99;100.00;67352.69;5053408;28;19912;-80
2024/01/24 09:36:35;;;;;;;;;;;;;;;-144.99;100.00;67352.69;5054836;28;19947;-80
2024/01/24 09:39:00;;;;;;;;;;;;;;;-144.99;100.00;67352.69;5054901;28;19913;-81
2024/01/24 09:41:26;;;;;;;;;;;;;;;-144.99;100.00;67352.69;5050170;28;19955;-80
2024/01/24 09:43:55;;;;;;;;;;;;;;;-144.99;100.00;67352.69;5051269;28;19929;-79
2024/01/24 09:46:20;;;;;;;;;;;;;;;-144.99;100.00;67352.69;5054287;28;19948;-80
2024/01/24 09:48:46;;;;;;;;;;;;;;;-144.99;100.00;67352.69;5054031;28;20418;-79
2024/01/24 09:51:12;;;;;;;;;;;;;;;-144.99;100.00;67352.69;5052889;28;20398;-80
2024/01/24 09:53:38;;;;;;;;;;;;;;;-144.99;100.00;67352.69;5052670;28;19978;-80
2024/01/24 09:56:04;;;;;;;;;;;;;;;-144.99;100.00;67352.69;5053330;28;19913;-80
2024/01/24 09:58:29;;;;;;;;;;;;;;;-144.99;100.00;67352.69;5053562;28;19913;-80
2024/01/24 10:00:56;;;;;;;;;;;;;;;-144.99;100.00;67352.69;5053876;28;19916;-81
2024/01/24 10:03:22;;;;;;;;;;;;;;;-144.99;100.00;67352.69;5054066;28;19948;-80
2024/01/24 10:05:49;;;;;;;;;;;;;;;-144.99;100.00;67352.69;5053037;28;19923;-79
2024/01/24 10:08:15;;;;;;;;;;;;;;;-144.99;100.00;67352.69;5054488;28;19913;-81
2024/01/24 10:10:42;;;;;;;;;;;;;;;-144.99;100.00;67352.69;5052583;28;19920;-81
2024/01/24 10:13:07;;;;;;;;;;;;;;;-144.99;100.00;67352.69;5050654;28;19913;-80
2024/01/24 10:15:34;;;;;;;;;;;;;;;-144.99;100.00;67352.69;5052867;28;19946;-80
2024/01/24 10:18:00;;;;;;;;;;;;;;;-144.99;100.00;67352.69;5054904;28;19920;-81
2024/01/24 10:20:26;;;;;;;;;;;;;;;-144.99;100.00;67352.69;5052848;28;19917;-79
2024/01/24 10:22:53;;;;;;;;;;;;;;;-144.99;100.00;67352.69;5054107;28;19920;-81
2024/01/24 10:25:18;;;;;;;;;;;;;;;-144.99;100.00;67352.69;5051813;28;20007;-80
2024/01/24 10:27:43;;;;;;;;;;;;;;;-144.99;100.00;67352.69;5052295;28;19955;-80
2024/01/24 10:30:10;;;;;;;;;;;;;;;-144.99;100.00;67352.69;5053798;28;20015;-80
2024/01/24 10:32:37;;;;;;;;;;;;;;;-144.99;100.00;67352.69;5050968;28;20386;-80
2024/01/24 10:35:05;;;;;;;;;;;;;;;-144.99;100.00;67352.69;5051138;28;20399;-80
2024/01/24 10:37:31;;;;;;;;;;;;;;;-144.99;100.00;67352.69;5051337;28;19917;-80
2024/01/24 10:39:57;;;;;;;;;;;;;;;-144.99;100.00;67352.69;5052214;28;19921;-79
2024/01/24 10:42:25;;;;;;;;;;;;;;;-144.99;100.00;67352.69;5051038;28;20387;-80
2024/01/24 10:44:50;;;;;;;;;;;;;;;-144.99;100.00;67352.69;5050913;28;19917;-80
2024/01/24 10:47:15;;;;;;;;;;;;;;;-144.99;100.00;67352.69;5048007;28;20402;-80
2024/01/24 10:49:41;;;;;;;;;;;;;;;-144.99;100.00;67352.69;5044118;28;20012;-82
2024/01/24 10:52:07;;;;;;;;;;;;;;;-144.99;100.00;67352.69;5050503;28;19915;-79
2024/01/24 10:54:34;;;;;;;;;;;;;;;-144.99;100.00;67352.69;5051391;28;20371;-80
2024/01/24 10:57:02;;;;;;;;;;;;;;;-144.99;100.00;67352.69;5049124;28;19917;-79
2024/01/24 10:59:30;;;;;;;;;;;;;;;-144.99;100.00;67352.69;5050458;28;20287;-80
2024/01/24 11:01:55;;;;;;;;;;;;;;;-144.99;100.00;67352.69;5050653;28;19913;-79
2024/01/24 11:04:22;;;;;;;;;;;;;;;-144.99;100.00;67352.69;5051275;28;19982;-79
2024/01/24 11:06:51;;;;;;;;;;;;;;;-144.99;100.00;67352.69;5051971;28;19912;-80
2024/01/24 11:09:41;;;;;;;;;;;;;;;-144.99;100.00;67352.69;5050736;28;19912;-80
2024/01/24 11:12:06;;;;;;;;;;;;;;;-144.99;100.00;67352.69;5050757;28;19912;-80
2024/01/24 11:14:33;;;;;;;;;;;;;;;-144.99;100.00;67352.69;5049834;28;20448;-80
2024/01/24 11:16:59;;;;;;;;;;;;;;;-144.99;100.00;67352.69;5051908;28;19913;-79
2024/01/24 11:19:25;;;;;;;;;;;;;;;-144.99;100.00;67352.69;5051948;28;20288;-78
2024/01/24 11:21:52;;;;;;;;;;;;;;;-144.99;100.00;67352.69;5051631;28;20003;-79
2024/01/24 11:24:36;;;;;;;;;;;;;;;-144.99;100.00;67352.69;5042564;28;19952;-80
2024/01/24 11:27:01;;;;;;;;;;;;;;;-144.99;100.00;67352.69;5044897;28;20315;-81
2024/01/24 11:29:32;;;;;;;;;;;;;;;-144.99;100.00;67352.69;5051585;28;19917;-80
2024/01/24 11:31:58;;;;;;;;;;;;;;;-144.99;100.00;67352.69;5044912;28;20326;-80
2024/01/24 11:34:26;;;;;;;;;;;;;;;-144.99;100.00;67352.69;5049321;28;19913;-79
2024/01/24 11:36:52;;;;;;;;;;;;;;;-144.99;100.00;67352.69;5052251;28;19947;-79
2024/01/24 11:39:33;;;;;;;;;;;;;;;-144.99;100.00;67352.69;5049965;28;19912;-79
2024/01/24 11:42:17;;;;;;;;;;;;;;;-144.99;100.00;67352.69;5041986;28;19925;-80
2024/01/24 11:44:42;;;;;;;;;;;;;;;-144.99;100.00;67352.69;5051669;28;19924;-79
2024/01/24 11:47:07;;;;;;;;;;;;;;;-144.99;100.00;67352.69;5050988;28;20019;-80
2024/01/24 11:49:33;;;;;;;;;;;;;;;-144.99;100.00;67352.69;5051530;28;19966;-82
2024/01/24 11:52:01;;;;;;;;;;;;;;;-144.99;100.00;67352.69;5053079;28;19920;-79
2024/01/24 11:54:26;;;;;;;;;;;;;;;-144.99;100.00;67352.69;5051289;28;19912;-81
2024/01/24 11:56:51;;;;;;;;;;;;;;;-144.99;100.00;67352.69;5051454;28;19978;-80
2024/01/24 11:59:19;;;;;;;;;;;;;;;-144.99;100.00;67352.69;5050372;28;19917;-79
2024/01/24 12:01:45;;;;;;;;;;;;;;;-144.99;100.00;67352.69;5050291;28;19913;-79
2024/01/24 12:04:10;;;;;;;;;;;;;;;-144.99;100.00;67352.69;5049643;28;19917;-79
2024/01/24 12:06:36;;;;;;;;;;;;;;;-144.99;100.00;67352.69;5051622;28;19912;-79
2024/01/24 12:09:01;;;;;;;;;;;;;;;-144.99;100.00;67352.69;5050632;28;20177;-79
2024/01/24 12:11:26;;;;;;;;;;;;;;;-144.99;100.00;67352.69;5051570;28;20379;-79